createdAt,value
2023-07-09T00:02:12.117Z,7.23
2023-07-09T00:04:39.803Z,8.20
2023-07-09T00:07:33.662Z,6.93
2023-07-09T00:10:02.083Z,5.97
2023-07-09T00:12:29.889Z,5.80
2023-07-09T00:14:58.600Z,5.50
2023-07-09T00:17:34.962Z,5.83
2023-07-09T00:20:06.625Z,4.13
2023-07-09T00:22:35.704Z,4.40
2023-07-09T00:25:03.697Z,3.80
2023-07-09T00:27:34.960Z,3.83
2023-07-09T00:30:03.917Z,4.30
2023-07-09T00:32:31.679Z,4.20
2023-07-09T00:34:59.420Z,4.20
2023-07-09T00:37:27.599Z,5.40
2023-07-09T00:39:55.276Z,4.93
2023-07-09T00:42:25.145Z,4.57
2023-07-09T00:44:55.814Z,4.60
2023-07-09T00:47:51.039Z,4.50
2023-07-09T00:50:36.456Z,4.37
2023-07-09T00:53:13.485Z,4.10
2023-07-09T00:55:44.978Z,4.43
2023-07-09T00:58:19.220Z,4.30
2023-07-09T01:01:00.576Z,4.10
2023-07-09T01:03:43.533Z,4.40
2023-07-09T01:06:13.583Z,4.57
2023-07-09T01:08:44.512Z,4.80
2023-07-09T01:11:23.705Z,4.70
2023-07-09T01:13:58.748Z,5.37
2023-07-09T01:16:32.269Z,5.20
2023-07-09T01:19:02.154Z,6.67
2023-07-09T01:21:29.793Z,6.40
2023-07-09T01:23:58.593Z,6.67
2023-07-09T01:26:29.207Z,5.77
2023-07-09T01:28:58.450Z,5.37
2023-07-09T01:31:26.150Z,5.40
2023-07-09T01:33:53.907Z,5.63
2023-07-09T01:36:23.683Z,5.33
2023-07-09T01:38:54.782Z,5.47
2023-07-09T01:41:23.519Z,5.30
2023-07-09T01:43:51.315Z,5.20
2023-07-09T01:46:19.022Z,4.97
2023-07-09T01:48:46.707Z,5.00
2023-07-09T01:51:20.970Z,5.13
2023-07-09T01:53:48.771Z,5.27
2023-07-09T01:56:16.515Z,5.53
2023-07-09T01:58:44.179Z,5.60
2023-07-09T02:01:12.407Z,5.30
2023-07-09T02:03:40.083Z,5.50
2023-07-09T02:06:10.990Z,5.40
2023-07-09T02:08:39.405Z,5.57
2023-07-09T02:11:07.109Z,5.23
2023-07-09T02:13:34.857Z,5.07
2023-07-09T02:16:02.923Z,5.73
2023-07-09T02:18:31.241Z,5.40
2023-07-09T02:20:58.982Z,5.10
2023-07-09T02:23:30.641Z,5.60
2023-07-09T02:25:58.481Z,4.87
2023-07-09T02:28:26.146Z,5.87
2023-07-09T02:30:54.345Z,5.77
2023-07-09T02:33:22.062Z,5.03
2023-07-09T02:35:49.847Z,5.57
2023-07-09T02:38:17.558Z,5.53
2023-07-09T02:40:45.253Z,5.60
2023-07-09T02:43:12.989Z,4.77
2023-07-09T02:45:40.652Z,5.40
2023-07-09T02:48:08.397Z,5.47
2023-07-09T02:50:36.082Z,5.87
2023-07-09T02:53:03.812Z,5.80
2023-07-09T02:55:31.571Z,4.93
2023-07-09T02:57:59.196Z,6.53
2023-07-09T03:00:26.975Z,5.93
2023-07-09T03:02:55.077Z,5.60
2023-07-09T03:05:22.812Z,5.20
2023-07-09T03:07:50.504Z,5.53
2023-07-09T03:10:18.274Z,6.33
2023-07-09T03:12:45.920Z,6.03
2023-07-09T03:15:14.222Z,5.80
2023-07-09T03:17:41.907Z,5.60
2023-07-09T03:20:10.550Z,5.63
2023-07-09T03:22:38.208Z,5.63
2023-07-09T03:25:06.468Z,5.80
2023-07-09T03:27:34.135Z,5.93
2023-07-09T03:30:01.995Z,6.30
2023-07-09T03:32:29.768Z,5.60
2023-07-09T03:34:57.474Z,5.70
2023-07-09T03:37:25.203Z,5.77
2023-07-09T03:39:52.912Z,5.97
2023-07-09T03:42:20.617Z,5.90
2023-07-09T03:44:48.252Z,6.17
2023-07-09T03:47:16.237Z,5.60
2023-07-09T03:49:44.083Z,5.67
2023-07-09T03:52:11.826Z,5.20
2023-07-09T03:54:39.487Z,5.30
2023-07-09T03:57:07.696Z,5.27
2023-07-09T03:59:35.401Z,5.10
2023-07-09T04:02:04.451Z,4.73
2023-07-09T04:04:32.170Z,5.27
2023-07-09T04:06:59.842Z,4.87
2023-07-09T04:09:27.592Z,5.10
2023-07-09T04:11:55.282Z,5.20
2023-07-09T04:14:23.021Z,5.13
2023-07-09T04:16:50.687Z,4.97
2023-07-09T04:19:18.362Z,5.17
2023-07-09T04:21:46.074Z,5.23
2023-07-09T04:24:16.013Z,4.97
2023-07-09T04:26:43.722Z,4.93
2023-07-09T04:29:12.248Z,4.70
2023-07-09T04:31:42.147Z,4.90
2023-07-09T04:34:09.992Z,5.07
2023-07-09T04:36:37.868Z,5.63
2023-07-09T04:39:05.897Z,5.23
2023-07-09T04:41:34.525Z,4.90
2023-07-09T04:44:02.287Z,5.70
2023-07-09T04:46:30.101Z,5.13
2023-07-09T04:48:57.789Z,5.40
2023-07-09T04:51:25.411Z,5.50
2023-07-09T04:53:53.155Z,4.93
2023-07-09T04:56:20.936Z,5.50
2023-07-09T04:58:50.417Z,5.20
2023-07-09T05:01:18.295Z,5.77
2023-07-09T05:03:45.989Z,5.80
2023-07-09T05:06:13.630Z,5.87
2023-07-09T05:08:41.850Z,6.00
2023-07-09T05:11:09.635Z,6.00
2023-07-09T05:13:37.536Z,7.40
2023-07-09T05:16:05.777Z,6.73
2023-07-09T05:18:33.969Z,6.90
2023-07-09T05:21:01.662Z,6.77
2023-07-09T05:23:29.385Z,6.73
2023-07-09T05:26:04.731Z,6.50
2023-07-09T05:28:34.343Z,6.60
2023-07-09T05:31:02.464Z,6.70
2023-07-09T05:33:30.176Z,7.67
2023-07-09T05:35:58.005Z,7.07
2023-07-09T05:38:25.790Z,7.30
2023-07-09T05:41:06.441Z,6.60
2023-07-09T05:43:34.088Z,6.50
2023-07-09T05:46:06.641Z,6.50
2023-07-09T05:48:35.006Z,6.50
2023-07-09T05:51:02.837Z,7.03
2023-07-09T05:53:30.526Z,6.77
2023-07-09T05:55:58.186Z,6.73
2023-07-09T05:58:25.924Z,7.33
2023-07-09T06:00:58.999Z,7.40
2023-07-09T06:03:28.662Z,6.47
2023-07-09T06:05:58.510Z,6.20
2023-07-09T06:08:27.668Z,6.38
2023-07-09T06:11:03.707Z,6.18
2023-07-09T06:13:32.913Z,5.97
2023-07-09T06:16:02.945Z,6.30
2023-07-09T06:18:31.668Z,5.65
2023-07-09T06:21:02.573Z,5.53
2023-07-09T06:23:31.434Z,4.72
2023-07-09T06:25:59.280Z,5.47
2023-07-09T06:28:32.025Z,5.85
2023-07-09T06:31:00.344Z,5.43
2023-07-09T06:33:29.318Z,5.20
2023-07-09T06:36:02.763Z,5.13
2023-07-09T06:38:30.930Z,5.13
2023-07-09T06:40:59.393Z,4.95
2023-07-09T06:43:27.327Z,4.88
2023-07-09T06:45:59.473Z,4.80
2023-07-09T06:48:29.691Z,5.05
2023-07-09T06:50:59.605Z,5.18
2023-07-09T06:53:29.242Z,4.63
2023-07-09T06:56:01.412Z,4.97
2023-07-09T06:58:33.070Z,4.00
2023-07-09T07:01:04.894Z,4.32
2023-07-09T07:03:35.310Z,4.03
2023-07-09T07:06:04.460Z,3.92
2023-07-09T07:08:32.529Z,3.90
2023-07-09T07:11:05.527Z,4.22
2023-07-09T07:13:44.621Z,4.32
2023-07-09T07:16:13.932Z,4.07
2023-07-09T07:18:42.794Z,3.92
2023-07-09T07:21:10.661Z,3.80
2023-07-09T07:23:38.364Z,3.60
2023-07-09T07:26:06.232Z,3.40
2023-07-09T07:28:37.029Z,3.75
2023-07-09T07:31:10.722Z,3.95
2023-07-09T07:33:41.589Z,3.38
2023-07-09T07:38:41.636Z,4.25
2023-07-09T07:41:09.542Z,5.22
2023-07-09T07:43:37.254Z,5.30
2023-07-09T07:46:05.419Z,5.47
2023-07-09T07:48:33.657Z,5.47
2023-07-09T07:51:04.149Z,5.38
2023-07-09T07:53:32.453Z,6.20
2023-07-09T07:56:00.397Z,5.47
2023-07-09T07:58:28.513Z,5.63
2023-07-09T08:00:58.356Z,5.35
2023-07-09T08:03:26.841Z,5.57
2023-07-09T08:05:55.190Z,5.63
2023-07-09T08:08:22.973Z,4.78
2023-07-09T08:11:02.226Z,5.03
2023-07-09T08:13:29.951Z,4.35
2023-07-09T08:15:57.790Z,4.07
2023-07-09T08:18:25.563Z,4.20
2023-07-09T08:20:53.398Z,4.00
2023-07-09T08:23:21.094Z,4.60
2023-07-09T08:26:00.264Z,4.68
2023-07-09T08:28:28.104Z,4.00
2023-07-09T08:30:57.140Z,3.85
2023-07-09T08:33:25.802Z,4.28
2023-07-09T08:35:55.147Z,4.07
2023-07-09T08:38:23.633Z,4.07
2023-07-09T08:41:00.924Z,4.38
2023-07-09T08:43:35.634Z,3.25
2023-07-09T08:46:17.837Z,3.60
2023-07-09T08:48:49.775Z,3.50
2023-07-09T08:51:40.188Z,3.60
2023-07-09T08:54:29.744Z,3.10
2023-07-09T08:57:24.596Z,3.00
2023-07-09T09:00:04.087Z,2.72
2023-07-09T09:02:48.306Z,3.08
2023-07-09T09:05:21.569Z,3.30
2023-07-09T09:08:13.324Z,3.28
2023-07-09T09:10:50.528Z,2.92
2023-07-09T09:13:22.159Z,3.20
2023-07-09T09:15:51.135Z,2.90
2023-07-09T09:18:27.277Z,2.63
2023-07-09T09:21:27.372Z,2.55
2023-07-09T09:24:00.609Z,2.80
2023-07-09T09:26:34.559Z,2.75
2023-07-09T09:29:02.530Z,2.90
2023-07-09T09:31:32.027Z,2.80
2023-07-09T09:33:59.740Z,2.70
2023-07-09T09:36:28.449Z,2.78
2023-07-09T09:38:56.182Z,2.65
2023-07-09T09:41:27.468Z,3.10
2023-07-09T09:43:56.132Z,2.90
2023-07-09T09:46:28.868Z,3.10
2023-07-09T09:49:03.274Z,2.88
2023-07-09T09:51:31.171Z,3.00
2023-07-09T09:54:03.821Z,3.40
2023-07-09T09:56:38.054Z,2.72
2023-07-09T09:59:07.230Z,2.70
2023-07-09T10:01:37.401Z,3.00
2023-07-09T10:04:07.018Z,2.38
2023-07-09T10:06:44.112Z,3.00
2023-07-09T10:09:51.366Z,2.60
2023-07-09T10:12:52.251Z,2.88
2023-07-09T10:16:16.461Z,2.83
2023-07-09T10:19:19.039Z,2.70
2023-07-09T10:22:41.725Z,2.83
2023-07-09T10:25:39.972Z,2.58
2023-07-09T10:28:33.592Z,2.58
2023-07-09T10:31:19.178Z,2.55
2023-07-09T10:34:42.215Z,2.40
2023-07-09T10:37:26.801Z,2.67
2023-07-09T10:39:59.719Z,2.80
2023-07-09T10:42:50.278Z,2.50
2023-07-09T10:45:45.825Z,2.65
2023-07-09T10:48:38.920Z,2.60
2023-07-09T10:52:01.406Z,2.70
2023-07-09T10:54:40.947Z,2.72
2023-07-09T10:57:30.985Z,2.83
2023-07-09T11:00:00.204Z,3.13
2023-07-09T11:02:32.730Z,2.90
2023-07-09T11:05:04.222Z,2.90
2023-07-09T11:08:02.081Z,3.00
2023-07-09T11:10:52.060Z,3.20
2023-07-09T11:13:52.741Z,3.20
2023-07-09T11:16:40.346Z,3.05
2023-07-09T11:19:15.562Z,2.75
2023-07-09T11:22:08.772Z,3.00
2023-07-09T11:25:05.275Z,2.70
2023-07-09T11:27:34.128Z,3.13
2023-07-09T11:30:21.869Z,3.10
2023-07-09T11:32:55.796Z,2.47
2023-07-09T11:35:28.322Z,2.58
2023-07-09T11:37:57.436Z,3.33
2023-07-09T11:40:25.411Z,3.00
2023-07-09T11:43:01.119Z,2.90
2023-07-09T11:45:34.602Z,2.80
2023-07-09T11:48:29.076Z,2.95
2023-07-09T11:50:58.448Z,2.80
2023-07-09T11:53:54.619Z,2.90
2023-07-09T11:56:25.469Z,2.78
2023-07-09T11:59:02.128Z,2.63
2023-07-09T12:01:46.515Z,3.10
2023-07-09T12:04:19.598Z,2.90
2023-07-09T12:06:48.250Z,2.72
2023-07-09T12:09:19.444Z,2.95
2023-07-09T12:11:52.427Z,3.20
2023-07-09T12:14:23.595Z,2.70
2023-07-09T12:16:55.782Z,2.90
2023-07-09T12:19:26.185Z,2.75
2023-07-09T12:21:58.630Z,2.95
2023-07-09T12:24:37.238Z,3.22
2023-07-09T12:27:23.188Z,2.85
2023-07-09T12:29:56.288Z,3.00
2023-07-09T12:32:28.205Z,2.92
2023-07-09T12:34:58.225Z,2.97
2023-07-09T12:37:30.021Z,2.90
2023-07-09T12:40:01.937Z,2.85
2023-07-09T12:42:37.121Z,2.90
2023-07-09T12:45:06.671Z,3.13
2023-07-09T12:47:34.617Z,3.03
2023-07-09T12:50:31.695Z,2.67
2023-07-09T12:53:17.463Z,2.90
2023-07-09T12:55:49.331Z,2.40
2023-07-09T12:58:29.044Z,2.60
2023-07-09T13:00:58.886Z,2.78
2023-07-09T13:03:32.547Z,2.80
2023-07-09T13:06:08.480Z,2.40
2023-07-09T13:08:45.521Z,2.53
2023-07-09T13:11:18.431Z,2.25
2023-07-09T13:14:06.062Z,3.00
2023-07-09T13:16:42.577Z,2.58
2023-07-09T13:19:12.501Z,2.40
2023-07-09T13:21:41.953Z,2.50
2023-07-09T13:24:29.205Z,2.63
2023-07-09T13:27:00.085Z,2.58
2023-07-09T13:29:29.317Z,2.78
2023-07-09T13:31:58.697Z,2.70
2023-07-09T13:34:29.098Z,2.30
2023-07-09T13:36:59.987Z,2.60
2023-07-09T13:39:28.972Z,2.75
2023-07-09T13:41:57.341Z,2.47
2023-07-09T13:44:29.300Z,2.80
2023-07-09T13:46:58.000Z,2.53
2023-07-09T13:49:28.717Z,2.65
2023-07-09T13:51:59.921Z,2.45
2023-07-09T13:54:37.049Z,2.47
2023-07-09T13:57:07.650Z,2.75
2023-07-09T13:59:35.417Z,2.25
2023-07-09T14:02:06.306Z,3.10
2023-07-09T14:04:34.922Z,2.70
2023-07-09T14:07:03.472Z,2.28
2023-07-09T14:09:31.203Z,2.50
2023-07-09T14:11:58.851Z,2.35
2023-07-09T14:14:34.105Z,2.13
2023-07-09T14:17:02.281Z,2.20
2023-07-09T14:19:29.990Z,2.90
2023-07-09T14:21:58.357Z,2.60
2023-07-09T14:24:29.734Z,2.70
2023-07-09T14:26:59.728Z,2.42
2023-07-09T14:29:27.650Z,2.70
2023-07-09T14:31:55.319Z,2.38
2023-07-09T14:34:34.626Z,2.53
2023-07-09T14:37:02.716Z,2.45
2023-07-09T14:39:30.733Z,2.55
2023-07-09T14:41:58.459Z,2.50
2023-07-09T14:44:32.347Z,2.58
2023-07-09T14:47:02.301Z,2.55
2023-07-09T14:49:30.153Z,2.70
2023-07-09T14:51:57.996Z,2.45
2023-07-09T14:54:31.538Z,2.33
2023-07-09T14:57:00.878Z,2.33
2023-07-09T14:59:28.633Z,2.40
2023-07-09T15:01:56.656Z,2.42
2023-07-09T15:04:27.517Z,2.60
2023-07-09T15:06:57.035Z,2.50
2023-07-09T15:09:27.920Z,2.70
2023-07-09T15:12:00.948Z,2.45
2023-07-09T15:14:29.315Z,2.30
2023-07-09T15:17:00.639Z,2.40
2023-07-09T15:19:29.772Z,2.20
2023-07-09T15:21:57.788Z,2.47
2023-07-09T15:24:36.069Z,2.50
2023-07-09T15:27:06.378Z,2.55
2023-07-09T15:29:34.191Z,2.47
2023-07-09T15:32:02.075Z,2.33
2023-07-09T15:34:29.901Z,2.92
2023-07-09T15:36:57.862Z,2.80
2023-07-09T15:39:27.501Z,2.90
2023-07-09T15:41:55.172Z,3.03
2023-07-09T15:44:24.762Z,2.70
2023-07-09T15:46:55.561Z,2.55
2023-07-09T15:49:24.171Z,2.95
2023-07-09T15:51:51.876Z,2.50
2023-07-09T15:54:22.864Z,2.42
2023-07-09T15:56:52.622Z,2.38
2023-07-09T15:59:33.525Z,2.60
2023-07-09T16:02:09.809Z,2.40
2023-07-09T16:04:37.660Z,2.60
2023-07-09T16:07:05.873Z,2.58
2023-07-09T16:09:34.853Z,2.38
2023-07-09T16:12:02.873Z,2.20
2023-07-09T16:14:35.190Z,2.40
2023-07-09T16:17:03.343Z,2.60
2023-07-09T16:19:32.683Z,2.55
2023-07-09T16:22:05.258Z,2.47
2023-07-09T16:24:37.731Z,2.60
2023-07-09T16:27:09.403Z,2.72
2023-07-09T16:29:38.522Z,2.30
2023-07-09T16:32:06.960Z,2.58
2023-07-09T16:34:34.685Z,2.40
2023-07-09T16:37:02.932Z,2.50
2023-07-09T16:39:42.565Z,2.70
2023-07-09T16:42:13.825Z,2.40
2023-07-09T16:44:41.885Z,2.30
2023-07-09T16:47:21.202Z,2.65
2023-07-09T16:49:49.624Z,2.42
2023-07-09T16:52:28.132Z,2.50
2023-07-09T16:54:56.961Z,2.45
2023-07-09T16:57:34.790Z,2.55
2023-07-09T17:00:35.017Z,2.42
2023-07-09T17:03:06.684Z,2.35
2023-07-09T17:05:34.484Z,2.55
2023-07-09T17:08:02.203Z,2.40
2023-07-09T17:10:30.136Z,2.40
2023-07-09T17:13:01.738Z,2.40
2023-07-09T17:15:32.720Z,2.38
2023-07-09T17:18:01.890Z,2.20
2023-07-09T17:20:31.914Z,2.30
2023-07-09T17:23:01.075Z,2.20
2023-07-09T17:25:35.746Z,2.30
2023-07-09T17:28:20.165Z,2.20
2023-07-09T17:30:48.893Z,2.42
2023-07-09T17:33:19.775Z,2.50
2023-07-09T17:35:50.783Z,2.30
2023-07-09T17:38:26.689Z,2.30
2023-07-09T17:40:55.016Z,2.55
2023-07-09T17:43:26.207Z,2.28
2023-07-09T17:45:54.814Z,2.03
2023-07-09T17:48:33.473Z,2.30
2023-07-09T17:51:01.532Z,2.15
2023-07-09T17:53:33.700Z,2.50
2023-07-09T17:56:02.690Z,1.98
2023-07-09T17:58:41.510Z,2.30
2023-07-09T18:01:09.182Z,2.20
2023-07-09T18:03:37.248Z,2.40
2023-07-09T18:06:05.733Z,2.13
2023-07-09T18:08:33.844Z,2.58
2023-07-09T18:11:01.819Z,2.30
2023-07-09T18:13:31.267Z,2.40
2023-07-09T18:15:59.832Z,2.05
2023-07-09T18:18:27.667Z,2.30
2023-07-09T18:20:55.488Z,2.10
2023-07-09T18:23:25.682Z,3.03
2023-07-09T18:25:53.574Z,2.38
2023-07-09T18:28:34.039Z,2.50
2023-07-09T18:33:33.001Z,2.67
2023-07-09T18:36:00.775Z,3.00
2023-07-09T18:38:28.512Z,3.22
2023-07-09T18:40:56.162Z,3.30
2023-07-09T18:43:32.216Z,2.85
2023-07-09T18:46:01.803Z,3.50
2023-07-09T18:48:30.613Z,3.72
2023-07-09T18:50:59.777Z,4.55
2023-07-09T18:53:29.416Z,6.95
2023-07-09T18:55:57.137Z,5.95
2023-07-09T18:58:31.249Z,7.50
2023-07-09T19:01:00.973Z,6.18
2023-07-09T19:03:37.832Z,4.22
2023-07-09T19:06:06.235Z,6.05
2023-07-09T19:08:36.112Z,9.30
2023-07-09T19:11:04.411Z,8.43
2023-07-09T19:13:32.215Z,6.40
2023-07-09T19:16:02.447Z,5.97
2023-07-09T19:18:36.516Z,7.20
2023-07-09T19:21:05.931Z,7.93
2023-07-09T19:23:33.714Z,5.85
2023-07-09T19:26:01.799Z,5.60
2023-07-09T19:28:30.050Z,5.40
2023-07-09T19:30:59.759Z,5.05
2023-07-09T19:33:36.563Z,4.28
2023-07-09T19:36:06.573Z,4.50
2023-07-09T19:38:34.455Z,5.53
2023-07-09T19:41:02.167Z,6.45
2023-07-09T19:43:29.800Z,6.47
2023-07-09T19:45:57.542Z,7.40
2023-07-09T19:48:28.852Z,6.00
2023-07-09T19:50:56.708Z,6.95
2023-07-09T19:53:29.103Z,5.80
2023-07-09T19:55:57.884Z,5.72
2023-07-09T19:58:25.914Z,4.55
2023-07-09T20:00:54.836Z,5.30
2023-07-09T20:03:33.465Z,5.32
2023-07-09T20:06:01.619Z,5.07
2023-07-09T20:08:29.382Z,5.30
2023-07-09T20:11:02.747Z,4.60
2023-07-09T20:13:35.463Z,4.10
2023-07-09T20:16:04.232Z,4.50
2023-07-09T20:18:32.611Z,4.40
2023-07-09T20:21:05.738Z,6.60
2023-07-09T20:23:33.609Z,7.40
2023-07-09T20:26:03.148Z,7.40
2023-07-09T20:28:31.368Z,8.73
2023-07-09T20:30:59.353Z,7.83
2023-07-09T20:33:29.328Z,5.87
2023-07-09T21:20:23.579Z,3.67
2023-07-09T21:22:52.792Z,5.03
2023-07-09T21:25:27.909Z,4.50
2023-07-09T21:27:56.061Z,4.37
2023-07-09T21:30:24.093Z,3.43
2023-07-09T21:32:51.895Z,3.17
2023-07-09T21:35:27.184Z,4.37
2023-07-09T21:37:57.564Z,2.53
2023-07-09T21:40:33.645Z,3.20
2023-07-09T21:43:05.401Z,3.20
2023-07-09T21:45:39.093Z,3.03
2023-07-09T21:48:13.956Z,3.40
2023-07-09T21:50:41.801Z,2.97
2023-07-09T21:55:59.263Z,2.93
2023-07-09T21:58:27.007Z,3.03
2023-07-09T22:00:56.808Z,3.10
2023-07-09T22:03:24.852Z,4.20
2023-07-09T22:05:52.673Z,4.77
2023-07-09T22:08:23.381Z,3.87
2023-07-09T22:10:53.177Z,4.70
2023-07-09T22:13:22.004Z,3.87
2023-07-09T22:15:49.738Z,6.57
2023-07-09T22:18:20.729Z,6.97
2023-07-09T22:20:49.504Z,6.53
2023-07-09T22:23:23.921Z,6.60
2023-07-09T22:25:52.349Z,4.60
2023-07-09T22:28:20.695Z,4.03
2023-07-09T22:30:49.135Z,3.60
2023-07-09T22:33:17.566Z,3.40
2023-07-09T22:35:46.562Z,3.03
2023-07-09T22:38:23.648Z,2.97
2023-07-09T22:40:51.777Z,3.10
2023-07-09T22:43:19.583Z,3.00
2023-07-09T22:45:53.100Z,3.40
2023-07-09T22:48:22.296Z,3.30
2023-07-09T22:50:55.411Z,3.30
2023-07-09T22:53:24.703Z,3.80
2023-07-09T22:55:53.683Z,3.57
2023-07-09T22:58:22.970Z,4.30
2023-07-09T23:01:01.994Z,3.47
2023-07-09T23:03:42.509Z,3.30
2023-07-09T23:06:19.819Z,3.40
2023-07-09T23:08:50.017Z,3.50
2023-07-09T23:11:29.984Z,3.13
2023-07-09T23:13:59.435Z,2.90
2023-07-09T23:16:33.579Z,2.70
2023-07-09T23:19:21.583Z,3.03
2023-07-09T23:21:49.463Z,3.60
2023-07-09T23:24:17.081Z,4.77
2023-07-09T23:26:49.956Z,3.90
2023-07-09T23:29:18.802Z,3.47
2023-07-09T23:31:49.837Z,4.17
2023-07-09T23:34:20.599Z,4.03
2023-07-09T23:36:49.033Z,3.90
2023-07-09T23:39:16.690Z,3.40
2023-07-09T23:41:48.524Z,3.00
2023-07-09T23:44:23.939Z,2.77
2023-07-09T23:46:53.229Z,2.60
2023-07-09T23:49:29.587Z,3.23
2023-07-09T23:51:59.183Z,3.07
2023-07-09T23:54:26.773Z,3.13
2023-07-09T23:56:54.580Z,3.20
